createdAt,value
2018-04-07T00:57:40.137Z,13.04
2018-04-07T01:00:10.620Z,13.01
2018-04-07T01:02:41.139Z,12.98
2018-04-07T01:05:11.661Z,13.10
2018-04-07T01:07:41.676Z,13.12
2018-04-07T01:10:12.153Z,13.06
2018-04-07T01:12:42.506Z,13.16
2018-04-07T01:15:12.830Z,13.11
2018-04-07T01:17:43.094Z,13.15
2018-04-07T01:20:13.548Z,13.06
2018-04-07T01:22:43.913Z,13.01
2018-04-07T01:25:14.397Z,13.04
2018-04-07T01:27:44.329Z,13.04
2018-04-07T01:30:14.647Z,12.96
2018-04-07T01:32:44.961Z,13.01
2018-04-07T01:35:15.197Z,13.04
2018-04-07T01:37:45.410Z,13.02
2018-04-07T01:40:16.219Z,13.22
2018-04-07T01:42:46.724Z,13.26
2018-04-07T01:45:17.088Z,13.31
2018-04-07T01:47:47.317Z,13.28
2018-04-07T01:50:17.673Z,13.23
2018-04-07T01:52:47.988Z,13.19
2018-04-07T01:55:18.400Z,13.10
2018-04-07T01:57:48.936Z,13.07
2018-04-07T02:00:18.993Z,13.07
2018-04-07T02:02:49.277Z,12.99
2018-04-07T02:05:19.610Z,12.85
2018-04-07T02:07:49.509Z,12.80
2018-04-07T02:10:19.816Z,12.83
2018-04-07T02:12:49.988Z,12.81
2018-04-07T02:15:20.070Z,12.87
2018-04-07T02:17:50.553Z,12.84
2018-04-07T02:20:21.026Z,13.09
2018-04-07T02:22:51.601Z,12.98
2018-04-07T02:25:22.021Z,12.90
2018-04-07T02:27:52.040Z,12.89
2018-04-07T02:30:22.028Z,12.96
2018-04-07T02:32:52.620Z,12.95
2018-04-07T02:35:23.311Z,12.96
2018-04-07T02:37:54.118Z,12.86
2018-04-07T02:40:24.528Z,12.81
2018-04-07T02:42:55.765Z,12.80
2018-04-07T02:45:25.927Z,12.76
2018-04-07T02:47:56.216Z,12.74
2018-04-07T02:50:26.480Z,12.69
2018-04-07T02:52:56.626Z,12.61
2018-04-07T02:55:26.998Z,12.62
2018-04-07T02:57:58.022Z,12.58
2018-04-07T03:00:28.259Z,12.58
2018-04-07T03:02:58.529Z,12.62
2018-04-07T03:05:28.820Z,12.57
2018-04-07T03:07:58.998Z,12.53
2018-04-07T03:10:29.858Z,12.51
2018-04-07T03:12:59.982Z,12.44
2018-04-07T03:15:30.013Z,12.60
2018-04-07T03:18:00.863Z,12.59
2018-04-07T03:20:31.485Z,12.67
2018-04-07T03:23:02.488Z,12.56
2018-04-07T03:25:32.769Z,12.60
2018-04-07T03:28:03.221Z,12.69
2018-04-07T03:30:32.947Z,12.56
2018-04-07T03:33:03.759Z,12.65
2018-04-07T03:35:34.176Z,12.68
2018-04-07T03:38:04.867Z,12.63
2018-04-07T03:40:35.651Z,12.53
2018-04-07T03:43:05.964Z,12.63
2018-04-07T03:45:36.136Z,12.83
2018-04-07T03:48:06.256Z,12.78
2018-04-07T03:50:36.414Z,12.62
2018-04-07T03:53:07.764Z,12.60
2018-04-07T03:55:38.121Z,12.57
2018-04-07T03:58:07.995Z,12.43
2018-04-07T04:00:38.288Z,12.55
2018-04-07T04:03:08.861Z,12.52
2018-04-07T04:05:39.420Z,12.53
2018-04-07T04:08:09.742Z,12.51
2018-04-07T04:10:39.480Z,12.38
2018-04-07T04:13:09.276Z,12.33
2018-04-07T04:15:39.066Z,12.38
2018-04-07T04:18:08.898Z,12.29
2018-04-07T04:20:38.660Z,12.17
2018-04-07T04:23:08.470Z,12.31
2018-04-07T04:25:38.286Z,12.30
2018-04-07T04:28:08.144Z,12.30
2018-04-07T04:30:37.884Z,12.15
2018-04-07T04:33:07.588Z,12.17
2018-04-07T04:35:37.341Z,12.29
2018-04-07T04:38:07.237Z,12.34
2018-04-07T04:40:37.020Z,12.46
2018-04-07T04:43:06.839Z,12.37
2018-04-07T04:45:36.611Z,12.42
2018-04-07T04:48:06.456Z,12.45
2018-04-07T04:50:36.303Z,12.47
2018-04-07T04:53:06.066Z,12.62
2018-04-07T04:55:35.921Z,12.62
2018-04-07T04:58:05.685Z,12.67
2018-04-07T05:00:35.484Z,12.69
2018-04-07T05:03:05.254Z,12.92
2018-04-07T05:05:35.028Z,12.83
2018-04-07T05:08:04.890Z,12.98
2018-04-07T05:10:34.607Z,13.13
2018-04-07T05:13:04.405Z,13.05
2018-04-07T05:15:34.260Z,13.07
2018-04-07T05:18:04.030Z,13.11
2018-04-07T05:20:33.849Z,13.23
2018-04-07T05:23:03.617Z,13.46
2018-04-07T05:25:33.424Z,13.70
2018-04-07T05:28:03.206Z,13.75
2018-04-07T05:30:32.937Z,13.83
2018-04-07T05:33:02.747Z,13.93
2018-04-07T05:35:32.638Z,13.93
2018-04-07T05:38:02.434Z,13.81
2018-04-07T05:40:32.143Z,13.98
2018-04-07T05:43:01.983Z,13.94
2018-04-07T05:45:31.837Z,14.02
2018-04-07T05:48:01.612Z,14.02
2018-04-07T05:50:31.330Z,14.21
2018-04-07T05:53:01.063Z,14.37
2018-04-07T05:55:30.809Z,14.52
2018-04-07T05:58:00.641Z,14.72
2018-04-07T06:00:30.413Z,14.82
2018-04-07T06:03:00.231Z,14.75
2018-04-07T06:05:30.025Z,14.64
2018-04-07T06:07:59.818Z,14.71
2018-04-07T06:10:29.597Z,14.84
2018-04-07T06:12:59.317Z,14.91
2018-04-07T06:15:29.086Z,14.65
2018-04-07T06:17:58.893Z,14.91
2018-04-07T06:27:16.107Z,15.06
2018-04-07T06:29:45.844Z,15.18
2018-04-07T06:32:15.555Z,15.06
2018-04-07T06:34:45.343Z,15.33
2018-04-07T06:37:15.235Z,15.49
2018-04-07T06:39:44.926Z,15.71
2018-04-07T06:42:14.734Z,15.78
2018-04-07T06:44:44.543Z,15.84
2018-04-07T06:47:14.369Z,15.91
2018-04-07T06:49:44.073Z,16.00
2018-04-07T06:52:13.797Z,16.08
2018-04-07T06:54:43.579Z,16.25
2018-04-07T06:57:13.396Z,16.51
2018-04-07T06:59:43.255Z,16.35
2018-04-07T07:02:13.067Z,16.43
2018-04-07T07:04:42.858Z,16.41
2018-04-07T07:07:12.655Z,16.55
2018-04-07T07:09:42.359Z,16.67
2018-04-07T07:12:12.105Z,16.87
2018-04-07T07:14:41.939Z,16.86
2018-04-07T07:17:11.736Z,16.99
2018-04-07T07:19:41.542Z,17.13
2018-04-07T07:22:11.369Z,17.09
2018-04-07T07:24:41.242Z,17.09
2018-04-07T07:27:11.057Z,17.06
2018-04-07T07:29:40.776Z,17.35
2018-04-07T07:32:10.518Z,17.36
2018-04-07T07:34:40.309Z,17.71
2018-04-07T07:37:10.145Z,17.70
2018-04-07T07:39:39.885Z,17.70
2018-04-07T07:42:09.650Z,17.54
2018-04-07T07:44:39.527Z,17.84
2018-04-07T07:47:09.316Z,18.21
2018-04-07T07:49:39.062Z,18.21
2018-04-07T07:52:08.763Z,18.14
2018-04-07T07:54:38.575Z,18.32
2018-04-07T07:57:08.405Z,18.46
2018-04-07T07:59:38.150Z,18.43
2018-04-07T08:02:07.914Z,18.32
2018-04-07T08:04:37.722Z,18.47
2018-04-07T08:07:07.519Z,18.77
2018-04-07T08:09:37.291Z,18.68
2018-04-07T08:12:07.035Z,18.77
2018-04-07T08:14:36.751Z,19.02
2018-04-07T08:17:06.557Z,19.02
2018-04-07T08:19:36.352Z,19.14
2018-04-07T08:22:06.175Z,19.35
2018-04-07T08:24:35.991Z,19.22
2018-04-07T08:27:05.879Z,18.96
2018-04-07T08:29:35.794Z,18.70
2018-04-07T08:32:05.595Z,18.75
2018-04-07T08:34:35.478Z,18.95
2018-04-07T08:37:05.249Z,18.61
2018-04-07T08:39:35.079Z,18.89
2018-04-07T08:42:04.922Z,18.78
2018-04-07T08:44:34.726Z,18.86
2018-04-07T08:47:04.555Z,18.77
2018-04-07T08:49:34.281Z,18.55
2018-04-07T08:52:04.043Z,18.68
2018-04-07T08:54:33.862Z,18.74
2018-04-07T08:57:03.701Z,19.15
2018-04-07T08:59:33.489Z,19.07
2018-04-07T09:02:03.360Z,18.82
2018-04-07T09:04:33.284Z,19.22
2018-04-07T09:07:03.192Z,19.64
2018-04-07T09:09:32.999Z,19.61
2018-04-07T09:12:02.812Z,19.81
2018-04-07T09:14:32.725Z,20.02
2018-04-07T09:17:02.750Z,20.39
2018-04-07T09:19:32.766Z,20.63
2018-04-07T09:22:02.674Z,21.04
2018-04-07T09:24:33.590Z,20.50
2018-04-07T09:27:03.638Z,20.32
2018-04-07T09:29:33.447Z,20.42
2018-04-07T09:32:03.251Z,20.93
2018-04-07T09:34:34.003Z,20.89
2018-04-07T09:37:03.784Z,21.16
2018-04-07T09:39:33.497Z,21.12
2018-04-07T09:42:03.463Z,21.17
2018-04-07T09:44:33.283Z,21.20
2018-04-07T09:47:03.052Z,21.36
2018-04-07T09:49:32.831Z,21.27
2018-04-07T09:52:02.528Z,21.44
2018-04-07T09:54:32.331Z,21.47
2018-04-07T09:57:02.073Z,21.57
2018-04-07T09:59:31.869Z,21.53
2018-04-07T10:02:01.686Z,21.48
2018-04-07T10:04:31.496Z,21.38
2018-04-07T10:07:01.264Z,21.37
2018-04-07T10:09:31.058Z,21.40
2018-04-07T10:12:00.882Z,21.22
2018-04-07T10:14:30.797Z,21.46
2018-04-07T10:17:00.825Z,22.08
2018-04-07T10:19:30.824Z,22.11
2018-04-07T10:22:00.625Z,21.44
2018-04-07T10:24:30.551Z,21.41
2018-04-07T10:27:00.490Z,21.67
2018-04-07T10:29:30.285Z,22.05
2018-04-07T10:32:00.074Z,22.26
2018-04-07T10:34:30.020Z,22.60
2018-04-07T10:36:59.801Z,22.68
2018-04-07T10:39:29.653Z,22.67
2018-04-07T10:41:59.756Z,22.82
2018-04-07T10:44:29.581Z,22.32
2018-04-07T10:46:59.452Z,22.14
2018-04-07T10:49:29.296Z,22.14
2018-04-07T10:51:59.112Z,22.31
2018-04-07T10:54:29.123Z,22.20
2018-04-07T10:56:59.061Z,22.37
2018-04-07T10:59:28.955Z,22.32
2018-04-07T11:01:58.787Z,22.19
2018-04-07T11:04:28.701Z,22.38
2018-04-07T11:06:58.601Z,22.97
2018-04-07T11:09:28.345Z,23.02
2018-04-07T11:11:58.040Z,23.33
2018-04-07T11:14:27.748Z,23.45
2018-04-07T11:16:57.508Z,22.64
2018-04-07T11:19:27.301Z,22.42
2018-04-07T11:21:57.074Z,22.76
2018-04-07T11:24:26.879Z,23.08
2018-04-07T11:26:56.632Z,23.34
2018-04-07T11:29:26.366Z,23.90
2018-04-07T11:31:56.069Z,24.18
2018-04-07T11:34:25.889Z,24.37
2018-04-07T11:36:55.660Z,24.20
2018-04-07T11:39:25.480Z,24.05
2018-04-07T11:41:55.248Z,24.34
2018-04-07T11:44:25.025Z,24.49
2018-04-07T11:46:54.857Z,24.74
2018-04-07T11:49:24.584Z,24.57
2018-04-07T11:51:54.279Z,23.93
2018-04-07T11:54:24.151Z,23.89
2018-04-07T11:56:54.149Z,23.87
2018-04-07T11:59:23.978Z,23.54
2018-04-07T12:01:53.750Z,23.35
2018-04-07T12:04:23.528Z,23.39
2018-04-07T12:06:53.377Z,24.01
2018-04-07T12:09:23.069Z,24.04
2018-04-07T12:11:52.807Z,24.48
2018-04-07T12:14:22.584Z,25.07
2018-04-07T12:16:52.419Z,24.11
2018-04-07T12:19:22.251Z,23.57
2018-04-07T12:21:52.001Z,24.09
2018-04-07T12:24:21.799Z,24.65
2018-04-07T12:26:51.636Z,25.30
2018-04-07T12:29:21.327Z,25.28
2018-04-07T12:31:51.061Z,25.29
2018-04-07T12:34:21.506Z,25.74
2018-04-07T12:36:51.358Z,25.25
2018-04-07T12:39:21.181Z,24.72
2018-04-07T12:41:50.971Z,24.52
2018-04-07T12:44:20.911Z,25.16
2018-04-07T12:46:50.764Z,25.53
2018-04-07T12:49:20.614Z,25.86
2018-04-07T12:51:50.324Z,26.59
2018-04-07T12:54:20.134Z,26.78
2018-04-07T12:56:49.909Z,27.23
2018-04-07T12:59:19.762Z,27.00
2018-04-07T13:01:49.575Z,25.81
2018-04-07T13:04:19.456Z,26.00
2018-04-07T13:06:49.322Z,26.51
2018-04-07T13:09:19.047Z,25.64
2018-04-07T13:11:48.936Z,25.61
2018-04-07T13:14:19.591Z,25.84
2018-04-07T13:16:50.391Z,25.54
2018-04-07T13:19:20.344Z,26.38
2018-04-07T13:21:50.228Z,27.00
2018-04-07T13:24:20.052Z,27.43
2018-04-07T13:26:49.970Z,26.79
2018-04-07T13:29:19.775Z,25.79
2018-04-07T13:31:49.587Z,25.42
2018-04-07T13:34:19.347Z,25.41
2018-04-07T13:36:49.106Z,26.27
2018-04-07T13:39:19.021Z,26.93
2018-04-07T13:41:48.837Z,27.88
2018-04-07T13:44:18.756Z,28.24
2018-04-07T13:46:48.566Z,27.81
2018-04-07T13:49:18.267Z,27.57
2018-04-07T13:51:47.958Z,28.16
2018-04-07T13:54:17.747Z,28.10
2018-04-07T13:56:47.561Z,27.41
2018-04-07T13:59:17.319Z,27.48
2018-04-07T14:01:47.047Z,28.38
2018-04-07T14:04:16.894Z,28.86
2018-04-07T14:06:46.640Z,29.06
2018-04-07T14:09:16.508Z,28.47
2018-04-07T14:11:46.389Z,27.41
2018-04-07T14:14:16.306Z,28.59
2018-04-07T14:16:46.237Z,28.98
2018-04-07T14:19:16.141Z,28.63
2018-04-07T14:21:46.071Z,29.02
2018-04-07T14:24:15.957Z,29.25
2018-04-07T14:26:45.878Z,30.07
2018-04-07T14:29:15.646Z,30.47
2018-04-07T14:31:45.508Z,29.83
2018-04-07T14:34:15.282Z,28.93
2018-04-07T14:36:45.146Z,27.32
2018-04-07T14:39:15.018Z,26.77
2018-04-07T14:41:44.872Z,26.36
2018-04-07T14:44:14.780Z,26.19
2018-04-07T14:46:44.683Z,26.86
2018-04-07T14:49:14.599Z,27.10
2018-04-07T14:51:44.526Z,27.21
2018-04-07T14:54:14.326Z,26.62
2018-04-07T14:56:44.253Z,26.55
2018-04-07T14:59:14.065Z,26.57
2018-04-07T15:01:44.591Z,26.21
2018-04-07T15:04:14.406Z,25.95
2018-04-07T15:06:44.312Z,26.36
2018-04-07T15:09:14.235Z,26.07
2018-04-07T15:11:44.144Z,25.62
2018-04-07T15:14:13.941Z,25.95
2018-04-07T15:16:43.708Z,25.99
2018-04-07T15:19:13.522Z,25.77
2018-04-07T15:21:43.278Z,25.80
2018-04-07T15:24:13.084Z,25.63
2018-04-07T15:26:43.021Z,25.56
2018-04-07T15:29:12.838Z,25.40
2018-04-07T15:31:42.702Z,25.33
2018-04-07T15:34:12.718Z,25.53
2018-04-07T15:36:42.684Z,24.87
2018-04-07T15:39:12.600Z,24.86
2018-04-07T15:41:42.524Z,24.60
2018-04-07T15:44:12.453Z,24.41
2018-04-07T15:46:43.169Z,24.35
2018-04-07T15:49:13.138Z,24.04
2018-04-07T15:51:43.106Z,23.86
2018-04-07T15:54:13.023Z,23.79
2018-04-07T15:56:42.954Z,23.76
2018-04-07T15:59:12.758Z,23.80
2018-04-07T16:01:42.759Z,23.56
2018-04-07T16:04:12.676Z,22.87
2018-04-07T16:06:43.205Z,23.13
2018-04-07T16:09:13.100Z,23.01
2018-04-07T16:11:42.928Z,22.99
2018-04-07T16:14:12.737Z,22.85
2018-04-07T16:16:42.474Z,22.74
2018-04-07T16:19:12.578Z,22.73
2018-04-07T16:21:42.387Z,22.90
2018-04-07T16:24:13.216Z,22.67
2018-04-07T16:26:42.907Z,22.37
2018-04-07T16:29:12.701Z,22.44
2018-04-07T16:31:42.476Z,22.41
2018-04-07T16:34:12.242Z,22.52
2018-04-07T16:36:42.140Z,22.26
2018-04-07T16:39:11.932Z,21.84
2018-04-07T16:41:41.719Z,21.69
2018-04-07T16:44:11.500Z,21.52
2018-04-07T16:46:41.288Z,21.32
2018-04-07T16:49:11.016Z,21.26
2018-04-07T16:51:40.704Z,21.26
2018-04-07T16:54:10.497Z,21.10
2018-04-07T16:56:40.286Z,21.04
2018-04-07T16:59:10.078Z,20.96
2018-04-07T17:01:39.821Z,20.92
2018-04-07T17:04:09.711Z,20.82
2018-04-07T17:06:39.513Z,20.53
2018-04-07T17:09:09.276Z,20.06
2018-04-07T17:11:38.990Z,20.06
2018-04-07T17:14:08.700Z,20.18
2018-04-07T17:16:38.487Z,20.22
2018-04-07T17:19:08.262Z,20.16
2018-04-07T17:21:44.728Z,20.01
2018-04-07T17:24:14.897Z,19.97
2018-04-07T17:26:44.797Z,19.72
2018-04-07T17:29:14.605Z,19.69
2018-04-07T17:31:44.528Z,19.64
2018-04-07T17:34:14.347Z,19.60
2018-04-07T17:36:44.361Z,19.49
2018-04-07T17:39:14.272Z,19.47
2018-04-07T17:41:44.184Z,19.39
2018-04-07T17:44:13.914Z,19.28
2018-04-07T17:46:43.646Z,19.27
2018-04-07T17:49:13.378Z,19.27
2018-04-07T17:51:43.130Z,19.16
2018-04-07T17:54:12.911Z,19.02
2018-04-07T17:56:42.670Z,18.84
2018-04-07T17:59:12.449Z,18.70
2018-04-07T18:01:42.201Z,18.50
2018-04-07T18:04:11.949Z,18.42
2018-04-07T18:06:41.765Z,18.38
2018-04-07T18:09:11.492Z,18.21
2018-04-07T18:11:41.220Z,18.11
2018-04-07T18:14:11.017Z,18.01
2018-04-07T18:16:40.756Z,17.90
2018-04-07T18:19:10.525Z,17.75
2018-04-07T18:21:40.263Z,17.67
2018-04-07T18:24:09.990Z,17.62
2018-04-07T18:26:39.781Z,17.43
2018-04-07T18:29:09.534Z,17.32
2018-04-07T18:31:39.266Z,17.22
2018-04-07T18:34:09.064Z,17.19
2018-04-07T18:36:38.800Z,17.16
2018-04-07T18:39:08.602Z,17.20
2018-04-07T18:41:38.352Z,17.23
2018-04-07T18:44:08.127Z,17.27
2018-04-07T18:46:37.980Z,17.29
2018-04-07T18:49:07.709Z,17.19
2018-04-07T18:51:37.428Z,17.22
2018-04-07T18:54:07.209Z,17.19
2018-04-07T18:56:36.941Z,17.06
2018-04-07T18:59:06.831Z,17.03
2018-04-07T19:01:36.598Z,16.96
2018-04-07T19:04:06.379Z,16.95
2018-04-07T19:06:36.134Z,16.89
2018-04-07T19:09:06.907Z,16.92
2018-04-07T19:11:36.751Z,16.87
2018-04-07T19:14:06.477Z,16.73
2018-04-07T19:16:36.235Z,16.60
2018-04-07T19:19:06.001Z,16.44
2018-04-07T19:21:35.748Z,16.24
2018-04-07T19:24:05.550Z,15.64
2018-04-07T19:26:35.274Z,15.55
2018-04-07T19:29:04.990Z,15.28
2018-04-07T19:31:34.723Z,15.34
2018-04-07T19:34:04.484Z,15.14
2018-04-07T19:36:34.287Z,15.10
2018-04-07T19:39:04.175Z,15.07
2018-04-07T19:41:33.962Z,14.98
2018-04-07T19:44:03.755Z,14.79
2018-04-07T19:46:33.554Z,14.78
2018-04-07T19:49:03.351Z,14.97
2018-04-07T19:51:33.118Z,15.13
2018-04-07T19:54:02.880Z,15.11
2018-04-07T19:56:32.655Z,15.19
2018-04-07T19:59:02.482Z,14.97
2018-04-07T20:01:32.212Z,14.62
2018-04-07T20:04:01.970Z,14.33
2018-04-07T20:06:31.758Z,14.31
2018-04-07T20:09:01.486Z,14.37
2018-04-07T20:11:31.247Z,14.66
2018-04-07T20:14:00.956Z,14.37
2018-04-07T20:16:30.717Z,14.48
2018-04-07T20:19:00.486Z,14.62
2018-04-07T20:21:30.265Z,15.05
2018-04-07T20:23:59.973Z,15.06
2018-04-07T20:26:29.724Z,14.73
2018-04-07T20:28:59.440Z,14.58
2018-04-07T20:31:29.199Z,14.60
2018-04-07T20:33:58.926Z,14.55
2018-04-07T20:36:28.659Z,14.14
2018-04-07T20:38:58.546Z,14.33
2018-04-07T20:41:28.246Z,14.31
2018-04-07T20:43:58.000Z,14.20
2018-04-07T20:46:27.845Z,14.36
2018-04-07T20:48:57.603Z,14.58
2018-04-07T20:51:27.362Z,14.60
2018-04-07T20:53:57.136Z,14.45
2018-04-07T20:56:26.902Z,14.21
2018-04-07T20:58:56.757Z,14.06
2018-04-07T21:01:26.467Z,13.91
2018-04-07T21:03:56.299Z,13.90
2018-04-07T21:06:26.084Z,13.94
2018-04-07T21:08:55.807Z,13.93
2018-04-07T21:11:25.637Z,13.58
2018-04-07T21:13:55.345Z,13.53
2018-04-07T21:16:25.197Z,13.75
2018-04-07T21:18:54.956Z,13.90
2018-04-07T21:21:24.696Z,13.95
2018-04-07T21:23:54.555Z,14.10
2018-04-07T21:26:24.349Z,14.10
2018-04-07T21:28:54.932Z,13.81
2018-04-07T21:31:25.407Z,13.68
2018-04-07T21:33:55.857Z,13.61
2018-04-07T21:36:26.327Z,13.89
2018-04-07T21:38:56.220Z,13.92
2018-04-07T21:41:25.975Z,13.92
2018-04-07T21:43:56.671Z,14.07
2018-04-07T21:46:27.412Z,14.00
2018-04-07T21:48:58.641Z,13.98
2018-04-07T21:51:28.502Z,14.03
2018-04-07T21:53:58.965Z,14.09
2018-04-07T21:56:29.372Z,13.95
2018-04-07T21:58:59.712Z,14.01
2018-04-07T22:01:30.171Z,13.87
2018-04-07T22:04:00.542Z,14.04
2018-04-07T22:06:30.834Z,14.08
2018-04-07T22:09:01.405Z,14.16
2018-04-07T22:11:31.966Z,14.19
2018-04-07T22:14:02.305Z,14.15
2018-04-07T22:16:32.568Z,13.98
2018-04-07T22:19:02.952Z,13.93
2018-04-07T22:21:33.407Z,13.82
2018-04-07T22:24:03.927Z,13.65
2018-04-07T22:26:35.421Z,13.61
2018-04-07T22:29:05.930Z,13.47
2018-04-07T22:31:36.453Z,13.29
2018-04-07T22:34:06.877Z,13.11
2018-04-07T22:36:37.326Z,13.07
2018-04-07T22:39:07.956Z,13.05
2018-04-07T22:41:38.447Z,13.07
2018-04-07T22:44:08.635Z,13.13
2018-04-07T22:46:39.154Z,13.06
2018-04-07T22:49:09.468Z,12.88
2018-04-07T22:51:40.067Z,12.80
2018-04-07T22:54:10.911Z,12.82
2018-04-07T22:56:41.424Z,12.86
2018-04-07T22:59:12.025Z,12.87
2018-04-07T23:01:42.486Z,12.96
2018-04-07T23:04:13.000Z,12.80
2018-04-07T23:06:43.597Z,12.70
2018-04-07T23:09:14.411Z,12.60
2018-04-07T23:11:45.194Z,12.48
2018-04-07T23:14:16.615Z,12.52
2018-04-07T23:16:47.010Z,12.42
2018-04-07T23:19:17.285Z,12.38
2018-04-07T23:21:47.641Z,12.37
2018-04-07T23:24:18.169Z,12.29
2018-04-07T23:26:48.667Z,12.16
2018-04-07T23:29:18.969Z,12.01
2018-04-07T23:31:49.430Z,11.52
2018-04-07T23:34:19.762Z,11.49
2018-04-07T23:36:50.236Z,11.47
2018-04-07T23:39:20.600Z,10.94
2018-04-07T23:41:50.931Z,10.71
2018-04-07T23:44:21.160Z,10.99
2018-04-07T23:46:51.450Z,11.11
2018-04-07T23:49:21.876Z,11.05
2018-04-07T23:51:52.576Z,11.10
2018-04-07T23:54:22.641Z,11.23
2018-04-07T23:56:52.969Z,11.34
2018-04-07T23:59:23.297Z,11.35
